Terminal Aerodrome Forecast
Issued by NWS Detroit/Pontiac, MI

Home | Current Version | Previous Version | Text Only | Print | Product List | Glossary On
Versions: 1 2 3 4 5 6 7 8 9 10 11 12 13 14 15 16 17
000
FTUS43 KDTX 240414 AAA
TAFFNT
TAF AMD
KFNT 240414Z 2404/2424 16009KT 6SM -RA SCT028 OVC040 WS020/22040KT
     FM240800 20010KT P6SM BKN035 WS020/23045KT
     FM241400 23014G25KT P6SM BKN022
     FM242100 25012KT P6SM OVC012=

USA.gov is the U.S. government's official web portal to all federal, state and local government web resources and services.